Wilsons Promontory Light, Australia
Current Conditions -  °F | °C
As of 7:05 PM on Wednesday 26 Nov 2014 (Local Time) from YMEN Reporting Station
Broken Clouds Broken Clouds  
Wind Chill: 57°   Ceiling: 2100
Heat Index: 57°   Visibility: 6mi
Dew Point: 50°   Wind: 15mph
Humidity: 77%   Direction: 170°S
Pressure: 30.18"   Gusts: NA
Location:  39.12°S, 146.42°E
Report Text: YMEN 260805Z AUTO 17013KT 9999 // SCT005 SCT012 BKN021 14/10 Q1022
Loading
Personal Weather Stations






























Interactive Weather Map New forecast layout! Learn more

10-Day Weather Forecast

Advertisements
Track Severe Weather on mobile